Time;durP1;ratioP1;P1;durP2;ratioP2;P2;SDS_P1;SDS_P2;PMS_P1;PMS_P2;Temp;Humidity;BMP_temperature;BMP_pressure;BME280_temperature;BME280_humidity;BME280_pressure;Samples;Min_cycle;Max_cycle;Signal;HPM_P1;HPM_P2
2021/10/29 00:01:12;;;;;;;36.48;19.95;;;;;;;10.11;88.80;100473.60;1687413;85;21437;-77
2021/10/29 00:03:40;;;;;;;37.75;20.72;;;;;;;10.10;88.71;100466.48;1687576;84;20934;-78
2021/10/29 00:06:06;;;;;;;37.83;21.60;;;;;;;10.08;88.78;100467.32;1687547;85;20984;-78
2021/10/29 00:08:33;;;;;;;41.08;21.30;;;;;;;10.06;88.71;100470.35;1687580;85;21040;-78
2021/10/29 00:10:59;;;;;;;34.58;20.43;;;;;;;10.03;88.80;100472.30;1687404;85;21982;-77
2021/10/29 00:13:26;;;;;;;36.48;19.50;;;;;;;10.03;89.01;100470.11;1687364;85;20997;-77
2021/10/29 00:15:53;;;;;;;41.98;20.43;;;;;;;10.04;89.08;100464.89;1687502;85;21085;-77
2021/10/29 00:18:19;;;;;;;36.85;21.15;;;;;;;10.05;89.11;100466.53;1687498;85;21508;-77
2021/10/29 00:20:46;;;;;;;30.92;19.17;;;;;;;10.09;89.11;100467.59;1687749;85;20949;-76
2021/10/29 00:23:13;;;;;;;31.07;18.12;;;;;;;10.08;89.08;100457.72;1687442;85;21043;-76
2021/10/29 00:25:39;;;;;;;31.17;17.57;;;;;;;10.07;89.08;100464.31;1687589;85;21028;-77
2021/10/29 00:28:05;;;;;;;27.67;16.17;;;;;;;10.04;89.09;100458.03;1687441;85;21014;-77
2021/10/29 00:30:32;;;;;;;38.10;19.55;;;;;;;10.02;89.40;100455.58;1687710;85;20953;-77
2021/10/29 00:32:59;;;;;;;41.77;21.33;;;;;;;10.00;89.51;100457.80;1687521;85;20890;-77
2021/10/29 00:35:25;;;;;;;36.95;20.20;;;;;;;9.99;89.50;100456.16;1680043;84;21473;-78
2021/10/29 00:37:51;;;;;;;40.17;20.90;;;;;;;10.01;89.46;100459.98;1685821;84;20853;-77
2021/10/29 00:40:18;;;;;;;40.00;18.57;;;;;;;9.99;89.25;100458.91;1682100;85;20956;-78
2021/10/29 00:42:45;;;;;;;33.58;19.02;;;;;;;9.98;89.12;100459.19;1681749;85;21541;-78
2021/10/29 00:45:11;;;;;;;34.80;19.07;;;;;;;9.92;89.16;100455.68;1682074;85;20870;-79
2021/10/29 00:47:38;;;;;;;37.60;20.43;;;;;;;9.87;89.14;100449.69;1681762;84;21042;-79
2021/10/29 00:50:05;;;;;;;37.95;20.02;;;;;;;9.84;89.21;100457.13;1681732;85;20952;-79
2021/10/29 00:52:33;;;;;;;36.25;19.87;;;;;;;9.80;89.30;100462.13;1681552;85;20990;-78
2021/10/29 00:55:00;;;;;;;36.70;20.02;;;;;;;9.78;89.47;100465.16;1681814;85;20991;-78
2021/10/29 00:57:27;;;;;;;36.90;19.52;;;;;;;9.75;89.84;100464.36;1681750;85;20955;-79
2021/10/29 00:59:53;;;;;;;34.65;18.95;;;;;;;9.73;89.79;100466.58;1643187;85;21508;-78
2021/10/29 01:02:20;;;;;;;35.48;20.43;;;;;;;9.71;89.79;100468.79;1681735;85;21450;-81
2021/10/29 01:04:46;;;;;;;47.00;21.93;;;;;;;9.68;89.94;100465.25;1681759;85;20935;-80
2021/10/29 01:07:13;;;;;;;34.33;20.20;;;;;;;9.66;90.27;100463.34;1681707;85;21027;-80
2021/10/29 01:09:40;;;;;;;38.10;21.12;;;;;;;9.65;90.54;100467.75;1681895;85;20908;-80
2021/10/29 01:12:08;;;;;;;35.08;21.42;;;;;;;9.64;90.48;100461.45;1681783;85;21526;-80
2021/10/29 01:14:36;;;;;;;41.28;21.23;;;;;;;9.62;90.38;100456.80;1681750;85;20944;-80
2021/10/29 01:17:03;;;;;;;36.05;21.17;;;;;;;9.60;90.47;100461.75;1681752;85;21026;-80
2021/10/29 01:19:32;;;;;;;38.98;21.65;;;;;;;9.60;90.68;100463.13;1681822;85;20951;-80
2021/10/29 01:22:03;;;;;;;33.20;18.90;;;;;;;9.59;90.85;100456.82;1681799;85;21479;-82
2021/10/29 01:24:30;;;;;;;32.28;19.50;;;;;;;9.60;91.22;100457.09;1655411;85;21992;-82
2021/10/29 01:26:56;;;;;;;33.18;18.67;;;;;;;9.63;91.32;100455.70;1681867;85;21486;-81
2021/10/29 01:29:24;;;;;;;37.13;19.17;;;;;;;9.62;91.22;100453.24;1681894;85;21598;-82
2021/10/29 01:31:50;;;;;;;30.80;18.77;;;;;;;9.62;91.46;100454.06;1681930;85;21427;-81
2021/10/29 01:34:16;;;;;;;38.10;18.60;;;;;;;9.60;91.34;100454.90;1681752;85;20912;-82
2021/10/29 01:36:44;;;;;;;32.15;17.77;;;;;;;9.57;91.30;100455.47;1681955;85;21094;-80
2021/10/29 01:39:16;;;;;;;33.88;18.15;;;;;;;9.55;91.30;100457.68;1681731;85;20948;-78
2021/10/29 01:41:44;;;;;;;38.23;19.48;;;;;;;9.51;91.34;100457.44;1681783;85;21008;-78
2021/10/29 01:44:12;;;;;;;35.05;19.57;;;;;;;9.49;91.51;100456.08;1681836;85;20904;-79
2021/10/29 01:46:40;;;;;;;39.03;20.92;;;;;;;9.47;91.64;100459.11;1681914;84;21081;-78
2021/10/29 01:49:07;;;;;;;37.10;20.25;;;;;;;9.46;91.75;100458.84;1681938;85;21147;-77
2021/10/29 01:51:33;;;;;;;32.33;19.30;;;;;;;9.46;91.94;100453.91;1681757;85;20986;-77
2021/10/29 01:53:59;;;;;;;38.53;20.27;;;;;;;9.45;91.95;100456.39;1681860;85;20892;-76
2021/10/29 01:56:33;;;;;;;33.18;18.73;;;;;;;9.44;92.02;100451.46;1681903;85;20951;-77
2021/10/29 01:58:59;;;;;;;36.83;19.90;;;;;;;9.46;92.03;100459.40;1680977;85;20919;-76
2021/10/29 02:01:26;;;;;;;34.67;19.55;;;;;;;9.45;91.93;100459.13;1681856;85;21324;-77
2021/10/29 02:03:53;;;;;;;41.33;20.75;;;;;;;9.44;92.01;100461.60;1681672;85;21557;-76
2021/10/29 02:06:25;;;;;;;38.70;21.60;;;;;;;9.42;92.03;100459.15;1681835;85;21047;-77
2021/10/29 02:09:02;;;;;;;39.85;22.00;;;;;;;9.42;92.18;100462.44;1681716;85;20952;-76
2021/10/29 02:11:31;;;;;;;38.90;21.70;;;;;;;9.42;92.18;100456.41;1682098;85;20900;-77
2021/10/29 02:14:04;;;;;;;42.53;20.72;;;;;;;9.42;92.23;100455.59;1681880;85;21160;-77
2021/10/29 02:16:40;;;;;;;38.80;20.15;;;;;;;9.42;92.31;100461.07;1681686;85;21043;-77
2021/10/29 02:19:13;;;;;;;37.83;19.70;;;;;;;9.42;92.25;100463.81;1681846;85;20944;-77
2021/10/29 02:21:45;;;;;;;45.43;20.57;;;;;;;9.39;92.22;100461.09;1655804;85;20952;-77
2021/10/29 02:24:17;;;;;;;41.02;21.33;;;;;;;9.38;92.30;100464.94;1681517;85;20900;-77
2021/10/29 02:26:53;;;;;;;38.05;19.32;;;;;;;9.38;92.37;100466.86;1681842;85;20904;-78
2021/10/29 02:29:19;;;;;;;41.90;22.17;;;;;;;9.37;92.45;100467.41;1681909;85;20945;-78
2021/10/29 02:31:47;;;;;;;47.80;25.45;;;;;;;9.36;92.59;100463.58;1682124;85;21507;-78
2021/10/29 02:34:20;;;;;;;46.92;22.07;;;;;;;9.37;92.65;100470.70;1682006;85;20987;-81
2021/10/29 02:36:55;;;;;;;37.73;21.62;;;;;;;9.38;92.72;100470.41;1655934;85;20953;-79
2021/10/29 02:39:33;;;;;;;37.65;20.88;;;;;;;9.37;92.69;100462.48;1666234;85;20944;-79
2021/10/29 02:42:02;;;;;;;39.73;22.30;;;;;;;9.37;92.58;100467.96;1678067;84;21011;-80
2021/10/29 02:44:30;;;;;;;36.58;20.32;;;;;;;9.35;92.67;100474.28;1665062;85;20972;-80
2021/10/29 02:47:06;;;;;;;40.95;21.68;;;;;;;9.34;92.79;100467.16;1643856;85;21475;-78
2021/10/29 02:49:38;;;;;;;42.98;22.32;;;;;;;9.32;92.81;100472.92;1681968;85;21454;-80
2021/10/29 02:52:14;;;;;;;48.40;22.27;;;;;;;9.30;92.78;100475.13;1681772;85;21150;-80
2021/10/29 02:54:43;;;;;;;48.42;23.67;;;;;;;9.28;93.02;100472.67;1681831;85;20901;-81
2021/10/29 02:57:15;;;;;;;44.80;25.10;;;;;;;9.28;93.03;100475.41;1667772;84;21587;-81
2021/10/29 02:59:45;;;;;;;44.38;23.40;;;;;;;9.24;93.42;100479.83;1698252;84;21094;-77
2021/10/29 03:02:22;;;;;;;48.70;23.98;;;;;;;9.21;93.59;100472.75;1699161;84;21006;-78
2021/10/29 03:04:52;;;;;;;46.68;23.92;;;;;;;9.18;93.75;100474.70;1699049;84;21139;-81
2021/10/29 03:07:21;;;;;;;41.55;23.85;;;;;;;9.18;93.89;100481.55;1698451;84;21391;-82
2021/10/29 03:09:47;;;;;;;44.88;22.48;;;;;;;9.18;93.96;100482.91;1699028;84;21485;-82
2021/10/29 03:12:14;;;;;;;43.02;22.07;;;;;;;9.19;93.89;100488.66;1698896;84;21528;-81
2021/10/29 03:14:49;;;;;;;45.75;22.93;;;;;;;9.18;93.84;100489.20;1698844;84;20863;-82
2021/10/29 03:17:19;;;;;;;48.80;24.77;;;;;;;9.17;93.83;100487.57;1722555;83;22276;-81
2021/10/29 03:19:50;;;;;;;44.77;23.38;;;;;;;9.16;93.80;100488.67;1699019;84;20943;-81
2021/10/29 03:22:23;;;;;;;44.40;23.32;;;;;;;9.12;93.76;100487.60;1699012;84;20952;-81
2021/10/29 03:24:53;;;;;;;55.12;26.27;;;;;;;9.09;93.95;100492.27;1699285;84;21025;-81
2021/10/29 03:27:26;;;;;;;58.30;26.05;;;;;;;9.07;94.15;100493.11;1695566;84;20979;-82
2021/10/29 03:29:54;;;;;;;62.75;27.85;;;;;;;9.07;94.21;100493.11;1674937;84;21187;-81
2021/10/29 03:32:24;;;;;;;57.08;26.30;;;;;;;9.07;94.26;100498.59;1699184;84;20923;-81
2021/10/29 03:34:58;;;;;;;60.23;27.90;;;;;;;9.07;94.24;100491.73;1667461;84;21002;-77
2021/10/29 03:40:26;;;;;;;63.95;26.40;;;;;;;9.05;94.35;100494.49;1667802;84;21529;-79
2021/10/29 03:45:54;;;;;;;69.67;29.15;;;;;;;9.03;94.58;100496.70;1699111;84;21493;-79
2021/10/29 03:48:31;;;;;;;63.92;27.70;;;;;;;9.02;94.61;100497.80;1699127;83;21418;-79
2021/10/29 03:56:03;;;;;;;59.90;26.85;;;;;;;8.99;94.81;100501.91;1719332;83;21142;-76
2021/10/29 03:58:33;;;;;;;58.63;26.95;;;;;;;8.99;94.84;100498.36;1718832;83;20940;-75
2021/10/29 04:01:07;;;;;;;62.62;26.55;;;;;;;8.98;94.91;100497.54;1718651;83;20925;-75
2021/10/29 04:03:35;;;;;;;60.58;26.05;;;;;;;8.99;94.85;100498.36;1718563;83;20991;-76
2021/10/29 04:06:04;;;;;;;56.58;27.07;;;;;;;8.97;94.88;100495.08;1717923;83;20932;-76
2021/10/29 04:08:37;;;;;;;67.82;28.73;;;;;;;8.97;95.13;100495.90;1687859;83;21574;-75
2021/10/29 04:11:21;;;;;;;62.40;27.95;;;;;;;8.99;95.56;100496.44;1687202;83;20892;-78
2021/10/29 04:13:45;;;;;;;65.70;28.55;;;;;;;9.01;95.54;100497.52;1717889;83;20908;-78
2021/10/29 04:16:19;;;;;;;70.70;29.50;;;;;;;9.00;95.41;100498.08;1688096;83;20900;-78
2021/10/29 04:18:47;;;;;;;80.57;33.20;;;;;;;9.00;95.41;100504.10;1718157;83;21000;-77
2021/10/29 04:21:16;;;;;;;70.08;28.90;;;;;;;9.01;95.60;100501.63;1676397;85;21176;-78
2021/10/29 04:23:44;;;;;;;80.12;30.52;;;;;;;9.02;95.87;100504.09;1718135;83;20936;-81
2021/10/29 04:26:17;;;;;;;84.30;32.13;;;;;;;9.04;95.81;100507.37;1710782;83;20944;-83
2021/10/29 04:28:52;;;;;;;86.65;31.17;;;;;;;9.05;96.05;100510.38;1707981;83;21592;-82
2021/10/29 04:31:26;;;;;;;95.22;31.35;;;;;;;9.07;96.08;100508.72;1697648;83;20868;-82
2021/10/29 04:33:55;;;;;;;71.22;29.80;;;;;;;9.08;95.91;100513.92;1695102;81;21319;-82
2021/10/29 04:36:28;;;;;;;83.33;29.18;;;;;;;9.09;95.74;100520.22;1696672;83;20922;-83
2021/10/29 04:39:04;;;;;;;66.07;28.45;;;;;;;9.07;95.64;100520.50;1720365;83;21503;-80
2021/10/29 04:41:30;;;;;;;74.62;28.85;;;;;;;9.07;95.61;100521.05;1713725;83;20908;-81
2021/10/29 04:44:01;;;;;;;73.45;28.57;;;;;;;9.05;95.55;100521.33;1718406;83;21038;-78
2021/10/29 04:46:31;;;;;;;68.28;27.13;;;;;;;9.04;95.59;100523.80;1711000;82;24551;-79
2021/10/29 04:49:02;;;;;;;75.60;28.57;;;;;;;9.03;95.77;100529.02;1720248;83;20931;-80
2021/10/29 04:51:35;;;;;;;74.07;27.22;;;;;;;9.04;96.08;100523.80;1667107;83;20923;-78
2021/10/29 04:54:06;;;;;;;83.67;27.93;;;;;;;9.05;96.08;100529.55;1720070;83;20947;-79
2021/10/29 04:56:39;;;;;;;110.70;30.12;;;;;;;9.06;96.36;100525.70;1720286;83;20856;-79
2021/10/29 04:59:15;;;;;;;104.12;28.42;;;;;;;9.07;96.22;100529.27;1718378;83;21078;-79
2021/10/29 05:01:46;;;;;;;91.10;28.73;;;;;;;9.05;96.10;100532.29;1719928;83;21434;-79
2021/10/29 05:04:18;;;;;;;85.42;28.12;;;;;;;9.04;96.13;100538.86;1716775;83;20969;-78
2021/10/29 05:06:48;;;;;;;86.67;27.62;;;;;;;9.04;96.20;100537.50;1684461;83;21022;-76
2021/10/29 05:09:19;;;;;;;81.63;27.85;;;;;;;9.07;96.39;100538.85;1691582;84;27616;-76
2021/10/29 05:11:53;;;;;;;94.83;28.15;;;;;;;9.08;96.68;100535.02;1682959;84;21160;-71
2021/10/29 05:14:21;;;;;;;92.97;28.02;;;;;;;9.09;96.61;100540.21;1691042;84;20899;-75
2021/10/29 05:16:52;;;;;;;94.03;27.60;;;;;;;9.12;96.55;100546.50;1691157;84;21418;-73
2021/10/29 05:19:28;;;;;;;85.92;29.87;;;;;;;9.12;96.43;100543.76;1657121;85;21044;-78
2021/10/29 05:21:57;;;;;;;87.80;29.40;;;;;;;9.13;96.57;100545.95;1690682;85;21019;-77
2021/10/29 05:24:31;;;;;;;74.47;27.82;;;;;;;9.17;96.62;100549.77;1696720;83;21218;-74
2021/10/29 05:27:01;;;;;;;85.53;27.40;;;;;;;9.20;96.62;100550.02;1711306;83;20900;-73
2021/10/29 05:29:29;;;;;;;67.62;27.85;;;;;;;9.22;96.66;100549.73;1720244;83;21478;-75
2021/10/29 05:32:04;;;;;;;70.10;26.87;;;;;;;9.24;96.65;100555.17;1719920;83;20958;-73
2021/10/29 05:34:34;;;;;;;64.65;27.50;;;;;;;9.29;96.79;100555.70;1707510;83;21439;-73
2021/10/29 05:37:07;;;;;;;68.95;30.12;;;;;;;9.32;96.73;100555.68;1690972;84;21288;-74
2021/10/29 05:39:39;;;;;;;60.95;27.98;;;;;;;9.34;96.67;100558.95;1690598;84;20907;-73
2021/10/29 05:42:06;;;;;;;63.63;26.85;;;;;;;9.38;96.58;100564.14;1690328;85;20928;-76
2021/10/29 05:44:39;;;;;;;61.15;26.93;;;;;;;9.43;96.53;100575.08;1691134;84;20923;-84
2021/10/29 05:47:10;;;;;;;63.58;28.50;;;;;;;9.47;96.60;100570.66;1690461;83;20912;-84
2021/10/29 05:49:43;;;;;;;57.08;25.80;;;;;;;9.52;96.58;100575.56;1661962;85;21435;-76
2021/10/29 05:52:19;;;;;;;72.80;26.85;;;;;;;9.58;96.56;100579.09;1690963;85;20956;-76
2021/10/29 05:57:33;;;;;;;63.20;26.25;;;;;;;9.69;96.22;100568.88;1718516;82;20939;-84
2021/10/29 06:00:02;;;;;;;58.78;26.00;;;;;;;9.76;96.20;100578.98;1727382;82;21517;-72
2021/10/29 06:02:42;;;;;;;70.32;28.60;;;;;;;9.81;96.09;100578.95;1695932;84;21174;-77
2021/10/29 06:05:11;;;;;;;57.27;27.58;;;;;;;9.87;95.90;100581.88;1696725;84;20918;-76
2021/10/29 06:07:40;;;;;;;66.17;27.27;;;;;;;9.91;95.74;100586.52;1666980;86;20904;-77
2021/10/29 06:10:16;;;;;;;65.62;26.87;;;;;;;9.97;95.71;100590.59;1696440;84;20986;-75
2021/10/29 06:12:45;;;;;;;53.33;23.75;;;;;;;10.02;95.54;100581.77;1667124;86;20885;-79
2021/10/29 06:15:18;;;;;;;55.25;24.50;;;;;;;10.08;95.31;100582.55;1729334;82;21544;-73
2021/10/29 06:17:44;;;;;;;66.50;25.20;;;;;;;10.14;95.10;100584.14;1728552;82;21038;-72
2021/10/29 06:20:13;;;;;;;54.85;24.77;;;;;;;10.22;94.91;100587.67;1728935;82;20895;-71
2021/10/29 06:22:45;;;;;;;59.42;25.92;;;;;;;10.30;94.89;100585.67;1728336;83;20974;-72
2021/10/29 06:25:18;;;;;;;57.15;26.45;;;;;;;10.39;94.48;100588.62;1728550;82;20848;-71
2021/10/29 06:30:26;;;;;;;51.58;25.57;;;;;;;10.53;93.80;100591.73;1695442;84;21573;-77
2021/10/29 06:32:54;;;;;;;50.45;24.63;;;;;;;10.62;93.45;100596.59;1665278;86;21059;-74
2021/10/29 06:35:22;;;;;;;55.92;26.35;;;;;;;10.70;93.26;100594.59;1696440;84;21400;-71
2021/10/29 06:37:48;;;;;;;43.95;23.22;;;;;;;10.79;92.74;100590.10;1695104;84;21011;-75
2021/10/29 06:40:16;;;;;;;64.92;30.02;;;;;;;10.87;92.39;100597.70;1696210;84;21571;-75
2021/10/29 06:42:50;;;;;;;67.90;29.48;;;;;;;10.98;91.85;100596.45;1696027;84;21618;-76
2021/10/29 06:47:49;;;;;;;52.70;28.35;;;;;;;11.13;90.98;100595.45;1694774;83;21007;-76
2021/10/29 07:01:22;;;;;;;80.92;31.05;;;;;;;11.65;88.90;100597.19;1719735;83;20908;-69
2021/10/29 07:42:18;;;;;;;34.15;17.45;;;;;;;13.18;80.52;100625.11;1700029;83;20912;-68
2021/10/29 07:44:49;;;;;;;31.23;18.75;;;;;;;13.20;80.20;100625.62;1713717;83;21019;-67
2021/10/29 07:47:17;;;;;;;30.80;16.45;;;;;;;13.20;79.86;100624.80;1714078;82;21213;-72
2021/10/29 07:49:49;;;;;;;27.32;15.08;;;;;;;13.24;79.99;100625.00;1712962;82;21023;-74
2021/10/29 07:52:19;;;;;;;31.90;15.68;;;;;;;13.29;79.81;100628.45;1712360;83;21055;-75
2021/10/29 07:54:48;;;;;;;29.15;16.57;;;;;;;13.30;79.87;100629.27;1720866;83;21513;-76
2021/10/29 07:57:19;;;;;;;30.15;16.73;;;;;;;13.31;79.94;100628.14;1723912;81;21038;-76
2021/10/29 07:59:54;;;;;;;28.15;17.17;;;;;;;13.30;79.98;100628.70;1725616;81;22289;-79
2021/10/29 08:02:27;;;;;;;28.52;16.23;;;;;;;13.35;79.88;100630.53;1726553;83;21434;-75
2021/10/29 08:04:56;;;;;;;45.40;19.27;;;;;;;13.37;79.18;100629.11;1726796;83;21514;-74
2021/10/29 08:07:56;;;;;;;26.10;16.15;;;;;;;13.35;79.29;100627.22;1726817;83;20895;-71
2021/10/29 08:10:23;;;;;;;30.52;17.52;;;;;;;13.37;79.23;100635.18;1726554;81;21013;-76
2021/10/29 08:12:54;;;;;;;26.77;15.87;;;;;;;13.38;79.25;100629.36;1705246;82;20991;-84
2021/10/29 08:15:25;;;;;;;22.13;14.98;;;;;;;13.40;79.09;100626.30;1706726;84;21736;-82
2021/10/29 08:18:03;;;;;;;25.85;14.40;;;;;;;13.43;78.74;100627.88;1706269;84;21510;-80
2021/10/29 08:20:36;;;;;;;27.98;14.95;;;;;;;13.44;78.66;100629.50;1687519;84;20918;-84
2021/10/29 08:23:07;;;;;;;44.88;18.82;;;;;;;13.49;78.65;100629.40;1687512;84;20918;-76
2021/10/29 08:25:38;;;;;;;29.15;16.80;;;;;;;13.61;78.55;100634.95;1687626;85;21978;-73
2021/10/29 08:28:13;;;;;;;29.07;14.98;;;;;;;13.78;78.16;100632.36;1687805;84;21500;-71
2021/10/29 08:30:41;;;;;;;24.60;13.43;;;;;;;14.01;77.08;100636.77;1687416;84;21473;-71
2021/10/29 08:33:14;;;;;;;19.42;12.25;;;;;;;14.30;76.16;100641.86;1663715;85;21095;-71
2021/10/29 08:35:44;;;;;;;20.75;12.55;;;;;;;14.74;74.22;100640.20;1687639;85;20930;-71
2021/10/29 08:38:23;;;;;;;32.70;14.83;;;;;;;15.37;72.58;100636.21;1687641;85;21232;-71
2021/10/29 08:40:55;;;;;;;22.98;12.82;;;;;;;16.09;70.23;100630.13;1687573;85;20902;-70
2021/10/29 08:43:25;;;;;;;22.60;12.10;;;;;;;16.85;66.74;100628.92;1687061;85;21029;-72
2021/10/29 08:45:54;;;;;;;16.85;11.43;;;;;;;17.47;63.49;100634.65;1688109;85;21045;-73
2021/10/29 08:48:29;;;;;;;23.12;12.80;;;;;;;17.93;60.14;100629.28;1695320;83;20951;-75
2021/10/29 08:50:57;;;;;;;19.50;11.70;;;;;;;18.11;59.88;100637.14;1727863;83;21550;-68
2021/10/29 08:53:35;;;;;;;18.80;11.53;;;;;;;18.32;58.74;100637.13;1695151;83;20896;-68
2021/10/29 08:56:07;;;;;;;17.73;11.78;;;;;;;18.56;57.33;100639.73;1727617;83;21050;-70
2021/10/29 08:59:10;;;;;;;18.23;10.78;;;;;;;18.78;56.40;100638.79;1728034;83;21014;-79
2021/10/29 09:07:39;;;;;;;11.57;7.40;;;;;;;19.61;52.96;100634.79;1658673;85;20944;-84
2021/10/29 09:10:28;;;;;;;20.40;8.80;;;;;;;19.63;50.47;100638.03;1670102;84;21575;-77
2021/10/29 09:32:55;;;;;;;12.58;8.30;;;;;;;20.94;45.71;100624.80;1727846;83;21265;-81
2021/10/29 09:35:16;;;;;;;10.18;6.03;;;;;;;20.50;45.87;100622.66;1726707;83;21021;-78
2021/10/29 09:38:09;;;;;;;8.68;5.97;;;;;;;20.24;45.40;100621.69;1727420;83;21050;-77
2021/10/29 09:40:59;;;;;;;7.53;4.17;;;;;;;19.97;44.86;100622.73;1727733;81;21101;-76
2021/10/29 09:43:25;;;;;;;9.30;4.77;;;;;;;19.41;44.25;100632.91;1728468;81;21055;-78
2021/10/29 09:46:04;;;;;;;7.87;4.42;;;;;;;18.90;45.32;100625.48;1727728;81;21132;-77
2021/10/29 09:48:45;;;;;;;7.10;4.00;;;;;;;18.61;46.14;100623.68;1727846;81;20939;-74
2021/10/29 09:51:15;;;;;;;6.12;4.35;;;;;;;18.26;46.35;100624.59;1692614;83;33583;-82
2021/10/29 09:58:58;;;;;;;8.30;3.95;;;;;;;17.78;48.72;100625.99;1726209;83;21622;-68
2021/10/29 10:01:28;;;;;;;8.40;3.45;;;;;;;18.30;47.65;100625.54;1726225;83;20987;-83
2021/10/29 10:03:54;;;;;;;4.37;3.15;;;;;;;18.83;45.69;100620.25;1726403;83;21007;-83
2021/10/29 10:06:25;;;;;;;5.95;4.40;;;;;;;19.07;45.03;100625.25;1726390;83;20976;-82
2021/10/29 10:08:53;;;;;;;6.83;4.33;;;;;;;18.86;44.63;100620.95;1726320;83;20939;-82
2021/10/29 10:11:23;;;;;;;10.13;4.58;;;;;;;18.40;45.80;100616.78;1726461;83;20895;-77
2021/10/29 10:13:52;;;;;;;6.30;3.72;;;;;;;18.12;46.65;100626.84;1725232;81;21514;-86
2021/10/29 10:16:19;;;;;;;7.20;4.03;;;;;;;17.92;46.79;100627.66;1756473;81;20856;-84
2021/10/29 10:18:46;;;;;;;7.65;3.80;;;;;;;17.65;46.97;100620.66;1749125;81;21046;-77
2021/10/29 10:21:19;;;;;;;6.80;4.62;;;;;;;17.36;47.51;100629.81;1757885;81;21484;-80
2021/10/29 10:23:48;;;;;;;6.05;4.12;;;;;;;17.17;48.68;100619.17;1731245;81;21138;-82
2021/10/29 10:26:21;;;;;;;8.03;5.10;;;;;;;17.03;49.13;100622.16;1698741;84;21054;-76
2021/10/29 10:40:37;;;;;;;9.05;4.58;;;;;;;19.19;46.05;100611.11;1727910;83;20899;-74
2021/10/29 10:45:56;;;;;;;6.50;3.12;;;;;;;20.41;42.84;100613.05;1745826;81;28118;-79
2021/10/29 10:48:28;;;;;;;8.30;3.62;;;;;;;20.75;41.13;100606.81;1685135;83;21075;-82
2021/10/29 10:51:35;;;;;;;6.15;3.90;;;;;;;20.85;40.14;100597.66;1742832;81;21498;-77
2021/10/29 10:54:20;;;;;;;7.28;3.37;;;;;;;20.73;40.21;100613.34;1679683;85;21712;-80
2021/10/29 11:00:26;;;;;;;5.45;3.58;;;;;;;20.26;40.13;100610.41;1714116;82;21072;-83
2021/10/29 11:11:17;;;;;;;16.80;5.15;;;;;;;18.01;44.76;100610.34;1665921;84;20973;-78
2021/10/29 11:14:00;;;;;;;9.95;4.30;;;;;;;17.63;45.82;100605.73;1665090;84;21510;-73
2021/10/29 11:16:36;;;;;;;8.05;4.22;;;;;;;17.49;46.94;100605.17;1665424;84;21034;-72
2021/10/29 11:19:16;;;;;;;8.40;4.42;;;;;;;17.68;46.94;100606.14;1706279;82;21833;-71
2021/10/29 11:21:50;;;;;;;6.50;4.58;;;;;;;18.37;45.64;100600.78;1715920;82;21078;-74
2021/10/29 11:24:41;;;;;;;12.37;4.25;;;;;;;19.14;44.45;100602.41;1707358;82;21270;-79
2021/10/29 11:27:17;;;;;;;10.80;4.62;;;;;;;19.90;42.19;100591.87;1658518;84;21313;-71
2021/10/29 11:29:54;;;;;;;6.70;3.92;;;;;;;20.54;41.00;100595.08;1708513;82;21053;-70
2021/10/29 11:32:25;;;;;;;9.53;4.75;;;;;;;20.92;39.79;100602.03;1682113;82;21309;-69
2021/10/29 11:35:00;;;;;;;9.33;4.95;;;;;;;21.08;38.83;100600.05;1709915;82;21649;-70
2021/10/29 11:37:33;;;;;;;10.75;5.53;;;;;;;21.06;39.34;100604.59;1710328;84;20979;-69
2021/10/29 11:40:05;;;;;;;7.58;4.97;;;;;;;21.11;38.58;100603.52;1709957;84;20896;-69
2021/10/29 11:42:35;;;;;;;10.70;5.12;;;;;;;20.95;38.56;100606.30;1708942;84;20968;-69
2021/10/29 11:45:07;;;;;;;12.07;5.00;;;;;;;20.70;39.09;100604.29;1705641;84;21144;-68
2021/10/29 11:47:37;;;;;;;9.10;4.85;;;;;;;20.51;39.55;100607.53;1659202;84;21516;-69
2021/10/29 11:50:12;;;;;;;11.83;5.83;;;;;;;20.29;39.74;100611.09;1686522;85;20957;-70
2021/10/29 11:52:44;;;;;;;15.80;6.10;;;;;;;19.93;40.26;100607.88;1704728;83;21012;-70
2021/10/29 11:55:38;;;;;;;;;;;;;;;19.51;41.09;100612.98;1684725;83;20966;-78
2021/10/29 11:57:53;;;;;;;14.15;5.10;;;;;;;19.38;41.97;100615.52;1657249;86;22691;-77
2021/10/29 12:00:33;;;;;;;9.83;5.20;;;;;;;19.71;41.88;100612.00;1660560;84;21549;-76
2021/10/29 12:08:26;;;;;;;5.78;4.42;;;;;;;20.34;39.99;100595.50;1682326;85;20943;-73
2021/10/29 12:11:03;;;;;;;9.80;4.78;;;;;;;20.23;40.04;100598.57;1689067;84;21173;-74
2021/10/29 12:13:38;;;;;;;11.88;7.20;;;;;;;20.27;40.01;100594.49;1690241;85;20896;-73
2021/10/29 12:16:21;;;;;;;9.70;5.65;;;;;;;20.36;39.90;100586.78;1688835;85;20987;-72
2021/10/29 12:19:06;;;;;;;6.17;4.55;;;;;;;20.64;39.85;100594.56;1688861;85;21474;-73
2021/10/29 12:21:40;;;;;;;13.48;7.60;;;;;;;20.82;39.04;100596.98;1682575;84;20908;-75
2021/10/29 12:24:15;;;;;;;8.23;4.55;;;;;;;20.60;39.58;100599.23;1659627;85;20939;-77
2021/10/29 12:26:42;;;;;;;10.80;5.80;;;;;;;20.47;39.78;100591.29;1688570;85;21434;-73
2021/10/29 12:29:16;;;;;;;10.60;5.47;;;;;;;20.86;39.31;100594.51;1688925;85;21534;-76
2021/10/29 12:47:39;;;;;;;6.85;4.65;;;;;;;22.31;36.15;100570.46;1717278;83;21542;-73
2021/10/29 13:02:23;;;;;;;9.53;5.12;;;;;;;20.58;38.77;100572.28;1715660;83;20827;-73
2021/10/29 13:04:54;;;;;;;6.60;4.37;;;;;;;20.79;39.23;100569.82;1715637;83;21232;-73
2021/10/29 13:07:25;;;;;;;6.15;4.45;;;;;;;20.78;38.83;100572.39;1673740;85;20922;-73
2021/10/29 13:10:09;;;;;;;7.25;4.97;;;;;;;20.93;38.25;100578.53;1657646;84;20869;-73
2021/10/29 13:15:12;;;;;;;8.08;3.98;;;;;;;21.08;37.94;100577.13;1670493;84;21052;-74
2021/10/29 13:17:44;;;;;;;6.97;5.12;;;;;;;21.25;37.82;100572.37;1668301;86;21077;-74
2021/10/29 13:52:52;;;;;;;24.20;12.70;;;;;;;18.01;43.13;100578.40;1642307;87;21070;-74
2021/10/29 14:03:27;;;;;;;14.50;7.87;;;;;;;16.53;46.71;100578.21;1742180;81;20987;-74
2021/10/29 14:30:14;;;;;;;58.95;17.62;;;;;;;14.92;51.79;100578.34;1747437;82;21510;-75
2021/10/29 14:35:26;;;;;;;60.03;15.83;;;;;;;14.65;52.56;100579.92;1710838;83;21028;-74
2021/10/29 14:40:30;;;;;;;84.55;23.18;;;;;;;14.28;53.35;100576.45;1708205;82;21128;-73
2021/10/29 14:48:15;;;;;;;69.05;17.92;;;;;;;13.56;55.14;100576.56;1681309;84;21052;-76
2021/10/29 15:03:59;;;;;;;95.65;23.02;;;;;;;12.11;59.06;100576.70;1696305;83;21160;-71
2021/10/29 15:15:15;;;;;;;70.75;21.52;;;;;;;11.36;61.03;100584.16;1658430;84;20992;-72
2021/10/29 15:17:47;;;;;;;73.02;21.73;;;;;;;11.20;61.29;100582.98;1649412;86;21914;-72
2021/10/29 15:26:14;;;;;;;76.90;25.68;;;;;;;10.75;62.64;100593.17;1604148;89;21011;-72
2021/10/29 15:28:41;;;;;;;80.65;27.80;;;;;;;10.56;63.35;100595.28;1600532;89;21500;-72
2021/10/29 15:31:14;;;;;;;96.95;33.70;;;;;;;10.44;63.84;100602.27;1603080;89;21190;-73
2021/10/29 15:41:05;;;;;;;186.67;44.85;;;;;;;10.33;64.06;100592.52;1621584;88;21007;-73
2021/10/29 15:42:10;;;;;;;406.97;87.57;;;;;;;9.97;65.22;100591.41;1631009;88;21006;-73
2021/10/29 15:44:33;;;;;;;366.23;80.65;;;;;;;9.85;65.41;100591.77;1627968;87;21858;-73
2021/10/29 15:47:00;;;;;;;324.30;80.07;;;;;;;9.75;66.01;100596.53;1629460;88;21539;-72
2021/10/29 15:49:36;;;;;;;393.70;107.20;;;;;;;9.64;66.14;100591.67;1629950;88;21034;-70
2021/10/29 15:52:12;;;;;;;453.40;151.97;;;;;;;9.53;66.51;100596.39;1629688;88;20952;-71
2021/10/29 15:54:40;;;;;;;441.32;149.80;;;;;;;9.43;66.69;100590.15;1629068;88;21471;-70
2021/10/29 15:57:04;;;;;;;443.75;151.53;;;;;;;9.33;67.17;100589.65;1629135;88;21214;-72
2021/10/29 15:59:44;;;;;;;393.93;138.80;;;;;;;9.23;67.41;100588.36;1629331;87;20955;-70
2021/10/29 16:18:30;;;;;;;417.25;111.45;;;;;;;8.71;69.13;100600.59;1639876;87;21574;-72
2021/10/29 16:20:56;;;;;;;394.87;112.92;;;;;;;8.62;69.51;100599.55;1639851;87;21026;-72
2021/10/29 16:23:27;;;;;;;364.68;114.25;;;;;;;8.54;69.67;100608.32;1639868;87;21107;-72